createdAt,value
2019-02-24T00:01:14.334Z,9.18
2019-02-24T00:03:42.728Z,7.72
2019-02-24T00:06:11.153Z,7.95
2019-02-24T00:08:39.548Z,7.70
2019-02-24T00:11:09.726Z,7.90
2019-02-24T00:13:38.005Z,7.25
2019-02-24T00:16:06.436Z,7.15
2019-02-24T00:18:34.857Z,8.35
2019-02-24T00:21:03.261Z,7.22
2019-02-24T00:23:31.662Z,7.00
2019-02-24T00:26:00.071Z,7.92
2019-02-24T00:28:28.466Z,7.37
2019-02-24T00:30:56.897Z,8.40
2019-02-24T00:33:25.292Z,9.00
2019-02-24T00:35:53.689Z,8.13
2019-02-24T00:38:22.099Z,9.30
2019-02-24T00:40:50.501Z,8.80
2019-02-24T00:43:18.933Z,9.08
2019-02-24T00:45:47.397Z,8.63
2019-02-24T00:48:15.792Z,8.65
2019-02-24T00:50:44.188Z,8.78
2019-02-24T00:53:12.584Z,8.50
2019-02-24T00:55:41.120Z,9.28
2019-02-24T00:58:15.920Z,8.98
2019-02-24T01:00:39.575Z,9.88
2019-02-24T01:03:07.961Z,8.98
2019-02-24T01:05:36.433Z,9.78
2019-02-24T01:08:04.920Z,9.93
2019-02-24T01:10:33.348Z,9.48
2019-02-24T01:13:01.745Z,9.25
2019-02-24T01:15:30.231Z,9.60
2019-02-24T01:17:58.624Z,9.73
2019-02-24T01:20:27.132Z,8.45
2019-02-24T01:22:55.529Z,9.20
2019-02-24T01:25:23.929Z,8.58
2019-02-24T01:27:52.332Z,9.05
2019-02-24T01:30:20.733Z,9.28
2019-02-24T01:32:49.215Z,9.18
2019-02-24T01:35:17.604Z,9.75
2019-02-24T01:37:46.002Z,9.15
2019-02-24T01:40:14.406Z,9.60
2019-02-24T01:42:42.808Z,9.85
2019-02-24T01:45:11.220Z,9.63
2019-02-24T01:47:39.624Z,9.88
2019-02-24T01:50:08.896Z,9.93
2019-02-24T01:52:37.300Z,10.70
2019-02-24T01:55:05.835Z,9.50
2019-02-24T01:57:34.256Z,9.83
2019-02-24T02:00:02.996Z,9.70
2019-02-24T02:02:31.400Z,10.43
2019-02-24T02:04:59.808Z,9.70
2019-02-24T02:07:28.221Z,10.70
2019-02-24T02:09:56.716Z,9.68
2019-02-24T02:12:25.144Z,9.85
2019-02-24T02:14:53.550Z,9.43
2019-02-24T02:17:21.952Z,9.80
2019-02-24T02:19:50.352Z,8.98
2019-02-24T02:22:18.772Z,9.40
2019-02-24T02:24:47.497Z,9.90
2019-02-24T02:27:16.226Z,10.32
2019-02-24T02:29:44.953Z,9.93
2019-02-24T02:32:13.681Z,9.78
2019-02-24T02:34:42.431Z,10.35
2019-02-24T02:37:11.151Z,9.75
2019-02-24T02:39:39.873Z,10.93
2019-02-24T02:42:08.602Z,10.50
2019-02-24T02:44:37.320Z,10.13
2019-02-24T02:47:06.078Z,9.13
2019-02-24T02:49:34.801Z,9.43
2019-02-24T02:52:03.529Z,10.58
2019-02-24T02:54:32.250Z,10.23
2019-02-24T02:57:00.975Z,10.43
2019-02-24T02:59:29.724Z,10.13
2019-02-24T03:01:58.436Z,10.20
2019-02-24T03:04:27.161Z,9.88
2019-02-24T03:07:00.389Z,10.53
2019-02-24T03:09:29.112Z,10.50
2019-02-24T03:11:57.862Z,10.08
2019-02-24T03:14:26.592Z,10.50
2019-02-24T03:16:55.423Z,10.75
2019-02-24T03:19:24.140Z,10.40
2019-02-24T03:21:52.933Z,10.53
2019-02-24T03:24:21.680Z,9.78
2019-02-24T03:26:50.415Z,10.00
2019-02-24T03:29:19.128Z,9.75
2019-02-24T03:31:47.853Z,8.68
2019-02-24T03:34:16.577Z,9.50
2019-02-24T03:36:45.320Z,9.78
2019-02-24T03:39:14.045Z,10.38
2019-02-24T03:41:42.794Z,10.78
2019-02-24T03:44:11.519Z,9.85
2019-02-24T03:46:40.237Z,10.10
2019-02-24T03:49:08.986Z,10.00
2019-02-24T03:51:37.722Z,10.55
2019-02-24T03:54:06.444Z,10.70
2019-02-24T03:56:35.177Z,9.85
2019-02-24T03:59:14.397Z,9.85
2019-02-24T04:01:34.365Z,10.63
2019-02-24T04:04:03.088Z,10.65
2019-02-24T04:06:31.816Z,10.93
2019-02-24T04:09:00.534Z,10.63
2019-02-24T04:11:29.269Z,11.53
2019-02-24T04:13:58.027Z,11.33
2019-02-24T04:16:26.745Z,9.80
2019-02-24T04:18:55.484Z,10.40
2019-02-24T04:21:24.213Z,10.13
2019-02-24T04:23:52.939Z,10.55
2019-02-24T04:26:21.697Z,10.95
2019-02-24T04:28:50.420Z,10.48
2019-02-24T04:31:19.141Z,11.33
2019-02-24T04:33:47.864Z,11.50
2019-02-24T04:36:16.588Z,11.45
2019-02-24T04:38:45.348Z,11.57
2019-02-24T04:41:14.069Z,11.73
2019-02-24T04:43:42.803Z,12.33
2019-02-24T04:46:11.534Z,11.97
2019-02-24T04:48:40.245Z,12.23
2019-02-24T04:51:09.001Z,12.37
2019-02-24T04:53:37.738Z,12.63
2019-02-24T04:56:06.451Z,11.83
2019-02-24T04:58:35.185Z,12.25
2019-02-24T05:01:03.862Z,12.53
2019-02-24T05:03:32.617Z,13.25
2019-02-24T05:06:01.345Z,14.07
2019-02-24T05:08:30.060Z,14.00
2019-02-24T05:10:58.776Z,13.18
2019-02-24T05:13:27.505Z,14.33
2019-02-24T05:15:56.236Z,13.80
2019-02-24T05:18:24.977Z,13.25
2019-02-24T05:20:53.706Z,12.15
2019-02-24T05:23:22.456Z,12.03
2019-02-24T05:25:51.101Z,11.78
2019-02-24T05:28:19.824Z,12.80
2019-02-24T05:30:48.559Z,12.47
2019-02-24T05:33:17.280Z,12.75
2019-02-24T05:35:46.069Z,12.30
2019-02-24T05:38:14.796Z,12.70
2019-02-24T05:40:43.525Z,14.85
2019-02-24T05:43:12.252Z,14.00
2019-02-24T05:45:40.978Z,15.03
2019-02-24T05:48:09.726Z,14.95
2019-02-24T05:50:38.456Z,13.83
2019-02-24T05:53:07.196Z,14.78
2019-02-24T05:55:35.920Z,14.58
2019-02-24T05:58:04.646Z,14.13
2019-02-24T06:00:33.396Z,13.90
2019-02-24T06:03:02.117Z,13.53
2019-02-24T06:05:30.868Z,14.28
2019-02-24T06:07:59.598Z,14.20
2019-02-24T06:10:28.332Z,13.48
2019-02-24T06:12:57.090Z,13.93
2019-02-24T06:15:25.812Z,13.53
2019-02-24T06:17:54.535Z,13.72
2019-02-24T06:20:23.382Z,14.73
2019-02-24T06:22:52.104Z,15.48
2019-02-24T06:25:21.044Z,14.25
2019-02-24T06:27:49.876Z,13.75
2019-02-24T06:30:18.600Z,13.05
2019-02-24T06:32:47.328Z,13.98
2019-02-24T06:35:16.056Z,13.70
2019-02-24T06:37:44.815Z,14.23
2019-02-24T06:40:13.504Z,15.45
2019-02-24T06:42:42.225Z,16.40
2019-02-24T06:45:10.991Z,15.80
2019-02-24T06:47:39.728Z,15.50
2019-02-24T06:50:09.601Z,14.50
2019-02-24T06:52:38.326Z,16.82
2019-02-24T06:55:08.554Z,15.25
2019-02-24T06:57:37.362Z,15.98
2019-02-24T07:00:14.032Z,16.55
2019-02-24T07:02:39.553Z,16.52
2019-02-24T07:05:08.776Z,16.55
2019-02-24T07:07:37.492Z,16.25
2019-02-24T07:10:07.424Z,15.20
2019-02-24T07:12:36.149Z,16.12
2019-02-24T07:15:07.400Z,16.30
2019-02-24T07:17:36.128Z,16.57
2019-02-24T07:20:06.448Z,16.50
2019-02-24T07:22:35.283Z,16.93
2019-02-24T07:25:05.002Z,15.32
2019-02-24T07:27:33.724Z,15.63
2019-02-24T07:30:02.477Z,16.10
2019-02-24T07:32:31.200Z,15.85
2019-02-24T07:34:59.930Z,16.05
2019-02-24T07:37:28.676Z,16.17
2019-02-24T07:39:57.393Z,15.30
2019-02-24T07:42:26.189Z,17.12
2019-02-24T07:44:54.865Z,17.27
2019-02-24T07:47:23.585Z,17.57
2019-02-24T07:49:52.309Z,17.60
2019-02-24T07:52:21.065Z,16.35
2019-02-24T07:54:49.793Z,16.07
2019-02-24T07:57:18.516Z,14.78
2019-02-24T07:59:47.352Z,15.32
2019-02-24T08:02:16.012Z,14.83
2019-02-24T08:04:46.033Z,14.15
2019-02-24T08:07:15.620Z,15.72
2019-02-24T08:09:44.348Z,16.17
2019-02-24T08:12:13.068Z,16.97
2019-02-24T08:14:41.834Z,15.68
2019-02-24T08:17:10.561Z,16.32
2019-02-24T08:19:39.305Z,18.10
2019-02-24T08:22:08.064Z,17.40
2019-02-24T08:24:36.717Z,19.50
2019-02-24T08:27:05.508Z,21.10
2019-02-24T08:29:34.303Z,21.75
2019-02-24T08:32:03.034Z,22.95
2019-02-24T08:34:31.740Z,24.07
2019-02-24T08:37:00.505Z,26.23
2019-02-24T08:39:29.233Z,23.22
2019-02-24T08:41:57.963Z,22.80
2019-02-24T08:44:26.726Z,23.50
2019-02-24T08:46:55.549Z,23.77
2019-02-24T08:49:24.276Z,24.30
2019-02-24T08:51:53.033Z,25.43
2019-02-24T08:54:21.776Z,23.52
2019-02-24T08:56:50.503Z,23.52
2019-02-24T08:59:19.264Z,24.85
2019-02-24T09:01:48.000Z,27.85
2019-02-24T09:04:16.720Z,26.45
2019-02-24T09:06:45.481Z,25.23
2019-02-24T09:09:15.114Z,23.80
2019-02-24T09:11:43.841Z,22.35
2019-02-24T09:14:12.560Z,22.52
2019-02-24T09:16:41.335Z,25.68
2019-02-24T09:19:10.094Z,24.60
2019-02-24T09:21:38.816Z,24.30
2019-02-24T09:24:07.536Z,25.45
2019-02-24T09:26:36.300Z,24.67
2019-02-24T09:29:05.021Z,23.98
2019-02-24T09:31:33.777Z,21.75
2019-02-24T09:34:02.532Z,21.42
2019-02-24T09:36:31.260Z,20.45
2019-02-24T09:38:59.988Z,20.50
2019-02-24T09:41:28.710Z,21.00
2019-02-24T09:43:57.456Z,24.05
2019-02-24T09:46:28.172Z,21.62
2019-02-24T09:48:56.588Z,20.17
2019-02-24T09:51:25.372Z,21.50
2019-02-24T09:53:54.106Z,20.55
2019-02-24T09:56:22.830Z,20.20
2019-02-24T09:58:51.580Z,21.77
2019-02-24T10:01:20.304Z,19.00
2019-02-24T10:03:49.024Z,20.08
2019-02-24T10:06:17.748Z,19.77
2019-02-24T10:08:46.487Z,18.32
2019-02-24T10:11:16.182Z,18.87
2019-02-24T10:13:44.902Z,17.65
2019-02-24T10:16:13.618Z,18.45
2019-02-24T10:18:42.387Z,17.92
2019-02-24T10:21:11.073Z,17.92
2019-02-24T10:23:39.922Z,18.05
2019-02-24T10:26:08.648Z,18.75
2019-02-24T10:28:37.392Z,18.45
2019-02-24T10:31:06.117Z,17.77
2019-02-24T10:33:34.844Z,17.65
2019-02-24T10:36:03.773Z,16.67
2019-02-24T10:38:32.514Z,16.17
2019-02-24T10:41:01.237Z,16.80
2019-02-24T10:43:29.960Z,16.67
2019-02-24T10:45:58.726Z,17.42
2019-02-24T10:48:27.560Z,17.75
2019-02-24T10:50:56.281Z,17.82
2019-02-24T10:53:25.004Z,15.70
2019-02-24T10:55:53.737Z,16.20
2019-02-24T10:58:22.458Z,16.05
2019-02-24T11:00:51.253Z,15.00
2019-02-24T11:03:19.982Z,15.63
2019-02-24T11:05:48.763Z,15.63
2019-02-24T11:08:17.506Z,16.90
2019-02-24T11:10:46.228Z,16.70
2019-02-24T11:13:15.828Z,15.63
2019-02-24T11:15:44.548Z,14.50
2019-02-24T11:18:13.281Z,13.50
2019-02-24T11:20:42.008Z,13.83
2019-02-24T11:23:10.736Z,12.37
2019-02-24T11:25:39.492Z,11.08
2019-02-24T11:28:08.313Z,9.90
2019-02-24T11:30:37.232Z,9.88
2019-02-24T11:33:06.005Z,9.33
2019-02-24T11:35:34.729Z,9.50
2019-02-24T11:38:03.576Z,9.98
2019-02-24T11:40:32.304Z,8.83
2019-02-24T11:43:01.030Z,8.13
2019-02-24T11:45:29.756Z,8.35
2019-02-24T11:47:58.491Z,8.88
2019-02-24T11:50:27.244Z,9.28
2019-02-24T11:52:55.966Z,9.00
2019-02-24T11:55:24.688Z,8.03
2019-02-24T11:57:53.500Z,7.87
2019-02-24T12:00:23.542Z,8.15
2019-02-24T12:02:52.352Z,7.35
2019-02-24T12:05:21.068Z,8.63
2019-02-24T12:07:49.793Z,7.72
2019-02-24T12:10:18.520Z,8.30
2019-02-24T12:12:47.246Z,7.85
2019-02-24T12:15:16.853Z,8.68
2019-02-24T12:17:45.572Z,9.20
2019-02-24T12:20:14.970Z,8.78
2019-02-24T12:22:43.697Z,8.48
2019-02-24T12:25:12.631Z,9.63
2019-02-24T12:27:41.516Z,8.73
2019-02-24T12:30:14.809Z,8.70
2019-02-24T12:32:43.604Z,9.23
2019-02-24T12:35:12.320Z,9.35
2019-02-24T12:37:41.040Z,9.08
2019-02-24T12:40:14.212Z,9.95
2019-02-24T12:42:42.945Z,10.68
2019-02-24T12:45:12.060Z,10.13
2019-02-24T12:47:40.785Z,9.53
2019-02-24T12:50:11.601Z,9.75
2019-02-24T12:52:40.356Z,9.33
2019-02-24T12:55:09.680Z,9.35
2019-02-24T12:57:38.520Z,9.45
2019-02-24T13:00:17.176Z,10.05
2019-02-24T13:02:45.897Z,9.65
2019-02-24T13:05:14.858Z,9.30
2019-02-24T13:07:43.589Z,9.38
2019-02-24T13:10:16.456Z,9.28
2019-02-24T13:12:45.174Z,9.60
2019-02-24T13:15:13.988Z,9.13
2019-02-24T13:17:43.576Z,8.50
2019-02-24T13:20:12.398Z,8.78
2019-02-24T13:22:41.204Z,8.75
2019-02-24T13:25:13.529Z,8.23
2019-02-24T13:27:42.247Z,9.00
2019-02-24T13:30:16.172Z,9.10
2019-02-24T13:32:45.005Z,9.95
2019-02-24T13:35:13.720Z,8.73
2019-02-24T13:37:42.480Z,9.20
2019-02-24T13:40:12.793Z,8.85
2019-02-24T13:42:41.578Z,9.17
2019-02-24T13:45:21.356Z,8.45
2019-02-24T13:47:50.076Z,8.50
2019-02-24T13:50:18.802Z,8.40
2019-02-24T13:52:47.516Z,7.60
2019-02-24T13:55:16.460Z,9.08
2019-02-24T13:57:45.184Z,8.95
2019-02-24T14:00:23.256Z,8.93
2019-02-24T14:02:51.947Z,9.68
2019-02-24T14:05:20.665Z,9.73
2019-02-24T14:07:49.384Z,9.30
2019-02-24T14:10:18.108Z,10.15
2019-02-24T14:12:46.832Z,11.10
2019-02-24T14:15:16.163Z,10.80
2019-02-24T14:17:44.958Z,11.33
2019-02-24T14:20:14.783Z,10.53
2019-02-24T14:22:43.613Z,10.55
2019-02-24T14:25:13.437Z,10.50
2019-02-24T14:27:42.157Z,10.93
2019-02-24T14:30:18.617Z,10.60
2019-02-24T14:32:47.337Z,10.45
2019-02-24T14:35:24.365Z,9.53
2019-02-24T14:37:53.089Z,9.63
2019-02-24T14:40:21.813Z,10.75
2019-02-24T14:42:50.567Z,10.38
2019-02-24T14:45:20.992Z,10.43
2019-02-24T14:47:49.712Z,10.10
2019-02-24T14:50:18.472Z,10.03
2019-02-24T14:52:47.187Z,10.70
2019-02-24T14:55:16.322Z,10.40
2019-02-24T14:57:45.200Z,10.60
2019-02-24T15:00:22.120Z,10.50
2019-02-24T15:02:50.844Z,10.13
2019-02-24T15:05:19.643Z,10.08
2019-02-24T15:07:48.371Z,11.30
2019-02-24T15:10:23.044Z,10.40
2019-02-24T15:12:51.760Z,10.45
2019-02-24T15:15:33.059Z,10.48
2019-02-24T15:17:58.418Z,10.43
2019-02-24T15:20:27.149Z,10.85
2019-02-24T15:22:55.918Z,11.03
2019-02-24T15:25:24.633Z,11.25
2019-02-24T15:27:53.352Z,10.58
2019-02-24T15:30:30.216Z,10.45
2019-02-24T15:32:59.041Z,11.10
2019-02-24T15:35:27.762Z,10.60
2019-02-24T15:37:56.485Z,11.18
2019-02-24T15:40:25.237Z,11.55
2019-02-24T15:42:53.962Z,11.85
2019-02-24T15:45:22.712Z,11.53
2019-02-24T15:47:51.438Z,12.28
2019-02-24T15:50:20.328Z,13.38
2019-02-24T15:52:49.076Z,12.85
2019-02-24T15:55:18.303Z,13.93
2019-02-24T15:57:47.028Z,13.58
2019-02-24T16:00:18.044Z,15.20
2019-02-24T16:02:46.769Z,15.20
2019-02-24T16:05:15.485Z,15.48
2019-02-24T16:07:44.215Z,15.55
2019-02-24T16:10:15.348Z,15.00
2019-02-24T16:12:44.096Z,14.43
2019-02-24T16:15:14.920Z,13.83
2019-02-24T16:17:43.749Z,13.48
2019-02-24T16:20:17.864Z,13.98
2019-02-24T16:22:46.592Z,13.38
2019-02-24T16:25:16.140Z,13.78
2019-02-24T16:27:44.862Z,12.30
2019-02-24T16:30:16.658Z,11.33
2019-02-24T16:32:45.381Z,10.80
2019-02-24T16:35:16.372Z,11.05
2019-02-24T16:37:45.136Z,9.78
2019-02-24T16:40:25.172Z,9.75
2019-02-24T16:42:53.921Z,7.80
2019-02-24T16:45:22.769Z,6.92
2019-02-24T16:47:51.484Z,7.33
2019-02-24T16:50:22.124Z,7.17
2019-02-24T16:52:50.834Z,7.08
2019-02-24T16:55:19.581Z,7.22
2019-02-24T16:57:48.313Z,7.25
2019-02-24T17:00:25.012Z,7.15
2019-02-24T17:02:53.840Z,7.62
2019-02-24T17:05:22.560Z,6.70
2019-02-24T17:07:51.277Z,6.65
2019-02-24T17:10:22.501Z,7.08
2019-02-24T17:12:51.142Z,7.03
2019-02-24T17:15:19.859Z,6.40
2019-02-24T17:17:48.599Z,6.67
2019-02-24T17:20:28.352Z,6.85
2019-02-24T17:22:57.078Z,6.28
2019-02-24T17:25:25.797Z,7.50
2019-02-24T17:27:54.525Z,6.45
2019-02-24T17:30:23.923Z,7.40
2019-02-24T17:32:52.878Z,7.75
2019-02-24T17:35:21.592Z,7.00
2019-02-24T17:37:50.318Z,7.12
2019-02-24T17:40:21.134Z,8.28
2019-02-24T17:42:49.884Z,6.78
2019-02-24T17:45:18.801Z,8.23
2019-02-24T17:47:47.521Z,8.28
2019-02-24T17:50:17.068Z,7.33
2019-02-24T17:52:45.789Z,7.65
2019-02-24T17:55:19.352Z,6.95
2019-02-24T17:57:48.079Z,7.50
2019-02-24T18:00:26.356Z,7.03
2019-02-24T18:02:55.076Z,7.35
2019-02-24T18:05:23.898Z,7.72
2019-02-24T18:07:52.612Z,7.35
2019-02-24T18:10:21.396Z,7.50
2019-02-24T18:12:50.119Z,7.67
2019-02-24T18:15:18.857Z,8.28
2019-02-24T18:17:47.576Z,8.18
2019-02-24T18:20:22.873Z,8.38
2019-02-24T18:22:51.605Z,9.18
2019-02-24T18:25:20.309Z,8.20
2019-02-24T18:27:49.047Z,8.28
2019-02-24T18:30:26.348Z,8.15
2019-02-24T18:32:55.116Z,12.50
2019-02-24T18:35:23.832Z,9.15
2019-02-24T18:37:52.553Z,8.95
2019-02-24T18:40:21.285Z,9.68
2019-02-24T18:42:59.346Z,8.28
2019-02-24T18:45:20.381Z,9.48
2019-02-24T18:47:49.831Z,8.80
2019-02-24T18:50:21.700Z,11.55
2019-02-24T18:52:50.449Z,10.10
2019-02-24T18:55:19.170Z,9.13
2019-02-24T18:57:47.892Z,9.63
2019-02-24T19:00:21.726Z,9.55
2019-02-24T19:02:50.427Z,10.43
2019-02-24T19:05:19.160Z,10.20
2019-02-24T19:07:47.895Z,9.83
2019-02-24T19:10:23.472Z,15.65
2019-02-24T19:12:52.274Z,10.63
2019-02-24T19:15:22.601Z,10.45
2019-02-24T19:17:51.328Z,9.38
2019-02-24T19:20:26.217Z,13.65
2019-02-24T19:22:54.937Z,11.38
2019-02-24T19:25:23.744Z,11.88
2019-02-24T19:27:52.468Z,13.43
2019-02-24T19:30:21.795Z,15.80
2019-02-24T19:32:50.616Z,21.57
2019-02-24T19:35:19.908Z,20.80
2019-02-24T19:37:48.634Z,24.05
2019-02-24T19:40:21.213Z,26.00
2019-02-24T19:42:49.946Z,25.10
2019-02-24T19:45:20.746Z,25.70
2019-02-24T19:47:49.464Z,23.75
2019-02-24T19:50:18.491Z,27.30
2019-02-24T19:52:47.334Z,28.05
2019-02-24T19:55:17.088Z,25.65
2019-02-24T19:57:45.893Z,24.00
2019-02-24T20:00:19.504Z,21.57
2019-02-24T20:02:48.376Z,21.60
2019-02-24T20:05:17.093Z,21.05
2019-02-24T20:07:45.813Z,23.32
2019-02-24T20:10:17.114Z,24.25
2019-02-24T20:12:45.837Z,22.30
2019-02-24T20:15:16.064Z,19.27
2019-02-24T20:17:46.253Z,17.17
2019-02-24T20:20:16.754Z,15.18
2019-02-24T20:22:45.600Z,13.50
2019-02-24T20:25:16.014Z,11.00
2019-02-24T20:27:44.741Z,11.40
2019-02-24T20:30:21.988Z,10.53
2019-02-24T20:32:51.518Z,8.98
2019-02-24T20:35:20.336Z,9.28
2019-02-24T20:37:49.065Z,9.20
2019-02-24T20:40:18.125Z,9.48
2019-02-24T20:42:46.840Z,8.88
2019-02-24T20:45:17.756Z,9.65
2019-02-24T20:47:46.506Z,9.63
2019-02-24T20:50:20.563Z,10.35
2019-02-24T20:52:49.282Z,11.40
2019-02-24T20:55:18.012Z,11.10
2019-02-24T20:57:46.741Z,11.22
2019-02-24T21:00:27.012Z,11.35
2019-02-24T21:02:55.732Z,10.75
2019-02-24T21:05:24.526Z,11.40
2019-02-24T21:07:53.249Z,10.98
2019-02-24T21:10:21.972Z,11.22
2019-02-24T21:12:50.720Z,11.97
2019-02-24T21:15:19.548Z,13.93
2019-02-24T21:17:48.274Z,15.43
2019-02-24T21:20:22.000Z,19.60
2019-02-24T21:22:50.836Z,21.10
2019-02-24T21:25:19.664Z,21.65
2019-02-24T21:27:48.401Z,24.87
2019-02-24T21:30:18.593Z,29.20
2019-02-24T21:32:47.327Z,22.67
2019-02-24T21:35:17.513Z,31.65
2019-02-24T21:37:46.444Z,28.23
2019-02-24T21:40:16.876Z,26.62
2019-02-24T21:42:45.592Z,25.05
2019-02-24T21:45:22.533Z,24.57
2019-02-24T21:47:51.184Z,22.27
2019-02-24T21:50:19.938Z,21.33
2019-02-24T21:52:48.659Z,21.60
2019-02-24T21:55:17.397Z,22.25
2019-02-24T21:57:46.122Z,22.70
2019-02-24T22:00:17.850Z,23.75
2019-02-24T22:02:46.596Z,22.80
2019-02-24T22:05:15.623Z,23.20
2019-02-24T22:07:44.344Z,22.40
2019-02-24T22:10:14.265Z,21.70
2019-02-24T22:12:42.988Z,22.65
2019-02-24T22:15:14.405Z,21.60
2019-02-24T22:17:43.128Z,17.17
2019-02-24T22:20:11.854Z,13.48
2019-02-24T22:22:40.580Z,12.47
2019-02-24T22:25:11.705Z,12.43
2019-02-24T22:30:14.184Z,10.30
2019-02-24T22:32:42.909Z,11.18
2019-02-24T22:35:11.635Z,11.83
2019-02-24T22:37:41.187Z,11.30
2019-02-24T22:40:16.541Z,10.78
2019-02-24T22:42:45.674Z,10.70
2019-02-24T22:45:19.097Z,10.53
2019-02-24T22:47:47.992Z,9.55
2019-02-24T22:50:16.925Z,9.88
2019-02-24T22:52:46.455Z,10.13
2019-02-24T22:55:16.469Z,10.15
2019-02-24T22:57:45.196Z,9.43
2019-02-24T23:00:53.476Z,9.93
2019-02-24T23:03:24.498Z,9.63
2019-02-24T23:05:53.236Z,9.58
2019-02-24T23:08:21.963Z,9.53
2019-02-24T23:10:51.277Z,9.15
2019-02-24T23:13:20.000Z,9.38
2019-02-24T23:15:48.740Z,9.23
2019-02-24T23:18:17.480Z,9.45
2019-02-24T23:20:46.201Z,9.23
2019-02-24T23:23:14.922Z,9.30
2019-02-24T23:25:43.640Z,9.68
2019-02-24T23:28:12.361Z,9.65
2019-02-24T23:30:41.109Z,9.33
2019-02-24T23:33:09.833Z,10.05
2019-02-24T23:35:38.554Z,9.90
2019-02-24T23:38:08.120Z,9.35
2019-02-24T23:40:36.846Z,8.65
2019-02-24T23:43:05.728Z,9.10
2019-02-24T23:45:34.444Z,9.00
2019-02-24T23:48:03.174Z,8.65
2019-02-24T23:50:32.037Z,8.65
2019-02-24T23:53:00.752Z,8.48
2019-02-24T23:55:29.500Z,9.65
2019-02-24T23:57:58.224Z,9.00
